sensor_id;sensor_type;location;lat;lon;timestamp;temperature;humidity
29687;DHT22;16599;47.078;15.536;2022-07-24T00:02:21;19.10;99.90
29687;DHT22;16599;47.078;15.536;2022-07-24T00:04:51;19.10;99.90
29687;DHT22;16599;47.078;15.536;2022-07-24T00:07:23;18.90;99.90
29687;DHT22;16599;47.078;15.536;2022-07-24T00:09:50;18.90;99.90
29687;DHT22;16599;47.078;15.536;2022-07-24T00:12:17;18.90;99.90
29687;DHT22;16599;47.078;15.536;2022-07-24T00:14:44;18.90;99.90
29687;DHT22;16599;47.078;15.536;2022-07-24T00:17:11;18.70;99.90
29687;DHT22;16599;47.078;15.536;2022-07-24T00:19:38;18.80;99.90
29687;DHT22;16599;47.078;15.536;2022-07-24T00:22:05;18.90;99.90
29687;DHT22;16599;47.078;15.536;2022-07-24T00:24:31;18.60;99.90
29687;DHT22;16599;47.078;15.536;2022-07-24T00:26:59;18.70;99.90
29687;DHT22;16599;47.078;15.536;2022-07-24T00:29:28;18.80;99.90
29687;DHT22;16599;47.078;15.536;2022-07-24T00:31:55;18.80;99.90
29687;DHT22;16599;47.078;15.536;2022-07-24T00:34:22;18.70;99.90
29687;DHT22;16599;47.078;15.536;2022-07-24T00:36:49;18.60;99.90
29687;DHT22;16599;47.078;15.536;2022-07-24T00:39:16;18.60;99.90
29687;DHT22;16599;47.078;15.536;2022-07-24T00:41:43;18.60;99.90
29687;DHT22;16599;47.078;15.536;2022-07-24T00:44:12;18.60;99.90
29687;DHT22;16599;47.078;15.536;2022-07-24T00:46:41;18.70;99.90
29687;DHT22;16599;47.078;15.536;2022-07-24T00:49:10;18.80;99.90
29687;DHT22;16599;47.078;15.536;2022-07-24T00:51:50;18.90;99.90
29687;DHT22;16599;47.078;15.536;2022-07-24T00:54:19;18.70;99.90
29687;DHT22;16599;47.078;15.536;2022-07-24T00:56:49;18.60;99.90
29687;DHT22;16599;47.078;15.536;2022-07-24T00:59:16;18.50;99.90
29687;DHT22;16599;47.078;15.536;2022-07-24T01:01:43;18.70;99.90
29687;DHT22;16599;47.078;15.536;2022-07-24T01:04:10;18.50;99.90
29687;DHT22;16599;47.078;15.536;2022-07-24T01:06:43;18.50;99.90
29687;DHT22;16599;47.078;15.536;2022-07-24T01:09:10;18.60;99.90
29687;DHT22;16599;47.078;15.536;2022-07-24T01:11:38;18.70;99.90
29687;DHT22;16599;47.078;15.536;2022-07-24T01:14:05;18.70;99.90
29687;DHT22;16599;47.078;15.536;2022-07-24T01:16:34;18.70;99.90
29687;DHT22;16599;47.078;15.536;2022-07-24T01:19:01;18.70;99.90
29687;DHT22;16599;47.078;15.536;2022-07-24T01:21:28;18.80;99.90
29687;DHT22;16599;47.078;15.536;2022-07-24T01:23:55;18.80;99.90
29687;DHT22;16599;47.078;15.536;2022-07-24T01:26:21;18.80;99.90
29687;DHT22;16599;47.078;15.536;2022-07-24T01:28:48;18.80;99.90
29687;DHT22;16599;47.078;15.536;2022-07-24T01:31:15;18.80;99.90
29687;DHT22;16599;47.078;15.536;2022-07-24T01:33:42;18.80;99.90
29687;DHT22;16599;47.078;15.536;2022-07-24T01:36:08;18.70;99.90
29687;DHT22;16599;47.078;15.536;2022-07-24T01:38:35;18.50;99.90
29687;DHT22;16599;47.078;15.536;2022-07-24T01:41:02;18.40;99.90
29687;DHT22;16599;47.078;15.536;2022-07-24T01:43:29;18.40;99.90
29687;DHT22;16599;47.078;15.536;2022-07-24T01:45:55;18.50;99.90
29687;DHT22;16599;47.078;15.536;2022-07-24T01:48:22;18.60;99.90
29687;DHT22;16599;47.078;15.536;2022-07-24T01:50:49;18.70;99.90
29687;DHT22;16599;47.078;15.536;2022-07-24T01:53:16;18.70;99.90
29687;DHT22;16599;47.078;15.536;2022-07-24T01:55:43;18.70;99.90
29687;DHT22;16599;47.078;15.536;2022-07-24T01:58:09;18.60;99.90
29687;DHT22;16599;47.078;15.536;2022-07-24T02:00:36;18.60;99.90
29687;DHT22;16599;47.078;15.536;2022-07-24T02:03:03;18.50;99.90
29687;DHT22;16599;47.078;15.536;2022-07-24T02:05:30;18.60;99.90
29687;DHT22;16599;47.078;15.536;2022-07-24T02:07:58;18.40;99.90
29687;DHT22;16599;47.078;15.536;2022-07-24T02:10:25;18.40;99.90
29687;DHT22;16599;47.078;15.536;2022-07-24T02:12:52;18.20;99.90
29687;DHT22;16599;47.078;15.536;2022-07-24T02:15:19;18.10;99.90
29687;DHT22;16599;47.078;15.536;2022-07-24T02:17:47;18.20;99.90
29687;DHT22;16599;47.078;15.536;2022-07-24T02:20:13;18.20;99.90
29687;DHT22;16599;47.078;15.536;2022-07-24T02:22:40;18.20;99.90
29687;DHT22;16599;47.078;15.536;2022-07-24T02:25:07;18.10;99.90
29687;DHT22;16599;47.078;15.536;2022-07-24T02:27:34;18.30;99.90
29687;DHT22;16599;47.078;15.536;2022-07-24T02:30:02;18.40;99.90
29687;DHT22;16599;47.078;15.536;2022-07-24T02:32:29;18.40;99.90
29687;DHT22;16599;47.078;15.536;2022-07-24T02:34:55;18.40;99.90
29687;DHT22;16599;47.078;15.536;2022-07-24T02:37:25;18.40;99.90
29687;DHT22;16599;47.078;15.536;2022-07-24T02:39:52;18.50;99.90
29687;DHT22;16599;47.078;15.536;2022-07-24T02:42:19;18.50;99.90
29687;DHT22;16599;47.078;15.536;2022-07-24T02:44:46;18.40;99.90
29687;DHT22;16599;47.078;15.536;2022-07-24T02:47:12;18.40;99.90
29687;DHT22;16599;47.078;15.536;2022-07-24T02:49:39;18.40;99.90
29687;DHT22;16599;47.078;15.536;2022-07-24T02:52:06;18.40;99.90
29687;DHT22;16599;47.078;15.536;2022-07-24T02:54:33;18.40;99.90
29687;DHT22;16599;47.078;15.536;2022-07-24T02:56:59;18.50;99.90
29687;DHT22;16599;47.078;15.536;2022-07-24T02:59:26;18.50;99.90
29687;DHT22;16599;47.078;15.536;2022-07-24T03:01:53;18.40;99.90
29687;DHT22;16599;47.078;15.536;2022-07-24T03:04:20;18.40;99.90
29687;DHT22;16599;47.078;15.536;2022-07-24T03:06:47;18.40;99.90
29687;DHT22;16599;47.078;15.536;2022-07-24T03:09:14;18.40;99.90
29687;DHT22;16599;47.078;15.536;2022-07-24T03:11:40;18.50;99.90
29687;DHT22;16599;47.078;15.536;2022-07-24T03:14:07;18.60;99.90
29687;DHT22;16599;47.078;15.536;2022-07-24T03:16:34;18.50;99.90
29687;DHT22;16599;47.078;15.536;2022-07-24T03:19:04;18.40;99.90
29687;DHT22;16599;47.078;15.536;2022-07-24T03:21:31;18.40;99.90
29687;DHT22;16599;47.078;15.536;2022-07-24T03:24:15;18.50;99.90
29687;DHT22;16599;47.078;15.536;2022-07-24T03:26:41;18.50;99.90
29687;DHT22;16599;47.078;15.536;2022-07-24T03:29:08;18.50;99.90
29687;DHT22;16599;47.078;15.536;2022-07-24T03:31:35;18.60;99.90
29687;DHT22;16599;47.078;15.536;2022-07-24T03:34:02;18.70;99.90
29687;DHT22;16599;47.078;15.536;2022-07-24T03:36:29;18.50;99.90
29687;DHT22;16599;47.078;15.536;2022-07-24T03:38:55;18.50;99.90
29687;DHT22;16599;47.078;15.536;2022-07-24T03:41:22;18.60;99.90
29687;DHT22;16599;47.078;15.536;2022-07-24T03:43:49;18.50;99.90
29687;DHT22;16599;47.078;15.536;2022-07-24T03:46:16;18.40;99.90
29687;DHT22;16599;47.078;15.536;2022-07-24T03:48:43;18.20;99.90
29687;DHT22;16599;47.078;15.536;2022-07-24T03:51:10;18.20;99.90
29687;DHT22;16599;47.078;15.536;2022-07-24T03:53:37;18.30;99.90
29687;DHT22;16599;47.078;15.536;2022-07-24T03:56:07;18.20;99.90
29687;DHT22;16599;47.078;15.536;2022-07-24T03:58:34;18.30;99.90
29687;DHT22;16599;47.078;15.536;2022-07-24T04:01:05;18.40;99.90
29687;DHT22;16599;47.078;15.536;2022-07-24T04:03:33;18.20;99.90
29687;DHT22;16599;47.078;15.536;2022-07-24T04:06:00;18.30;99.90
29687;DHT22;16599;47.078;15.536;2022-07-24T04:08:27;18.40;99.90
29687;DHT22;16599;47.078;15.536;2022-07-24T04:10:54;18.40;99.90
29687;DHT22;16599;47.078;15.536;2022-07-24T04:13:24;18.50;99.90
29687;DHT22;16599;47.078;15.536;2022-07-24T04:15:50;18.50;99.90
29687;DHT22;16599;47.078;15.536;2022-07-24T04:18:17;18.40;99.90
29687;DHT22;16599;47.078;15.536;2022-07-24T04:20:44;18.50;99.90
29687;DHT22;16599;47.078;15.536;2022-07-24T04:23:11;18.50;99.90
29687;DHT22;16599;47.078;15.536;2022-07-24T04:25:37;18.50;99.90
29687;DHT22;16599;47.078;15.536;2022-07-24T04:28:04;18.50;99.90
29687;DHT22;16599;47.078;15.536;2022-07-24T04:30:31;18.60;99.90
29687;DHT22;16599;47.078;15.536;2022-07-24T04:32:58;18.70;99.90
29687;DHT22;16599;47.078;15.536;2022-07-24T04:35:25;18.70;99.90
29687;DHT22;16599;47.078;15.536;2022-07-24T04:37:52;18.70;99.90
29687;DHT22;16599;47.078;15.536;2022-07-24T04:40:18;18.60;99.90
29687;DHT22;16599;47.078;15.536;2022-07-24T04:42:45;18.70;99.90
29687;DHT22;16599;47.078;15.536;2022-07-24T04:45:12;18.80;99.90
29687;DHT22;16599;47.078;15.536;2022-07-24T04:47:39;18.80;99.90
29687;DHT22;16599;47.078;15.536;2022-07-24T04:50:06;18.60;99.90
29687;DHT22;16599;47.078;15.536;2022-07-24T04:52:33;18.70;99.90
29687;DHT22;16599;47.078;15.536;2022-07-24T04:55:00;18.80;99.90
29687;DHT22;16599;47.078;15.536;2022-07-24T04:57:26;18.80;99.90
29687;DHT22;16599;47.078;15.536;2022-07-24T04:59:53;18.90;99.90
29687;DHT22;16599;47.078;15.536;2022-07-24T05:02:20;19.00;99.90
29687;DHT22;16599;47.078;15.536;2022-07-24T05:04:47;18.80;99.90
29687;DHT22;16599;47.078;15.536;2022-07-24T05:07:13;18.80;99.90
29687;DHT22;16599;47.078;15.536;2022-07-24T05:09:40;18.80;99.90
29687;DHT22;16599;47.078;15.536;2022-07-24T05:12:07;18.90;99.90
29687;DHT22;16599;47.078;15.536;2022-07-24T05:14:34;19.00;99.90
29687;DHT22;16599;47.078;15.536;2022-07-24T05:17:01;18.90;99.90
29687;DHT22;16599;47.078;15.536;2022-07-24T05:19:27;18.90;99.90
29687;DHT22;16599;47.078;15.536;2022-07-24T05:21:54;19.00;99.90
29687;DHT22;16599;47.078;15.536;2022-07-24T05:24:21;19.00;99.90
29687;DHT22;16599;47.078;15.536;2022-07-24T05:26:47;19.10;99.90
29687;DHT22;16599;47.078;15.536;2022-07-24T05:29:16;19.20;99.90
29687;DHT22;16599;47.078;15.536;2022-07-24T05:31:43;19.20;99.90
29687;DHT22;16599;47.078;15.536;2022-07-24T05:34:10;19.20;99.90
29687;DHT22;16599;47.078;15.536;2022-07-24T05:36:36;19.20;99.90
29687;DHT22;16599;47.078;15.536;2022-07-24T05:39:03;19.30;99.90
29687;DHT22;16599;47.078;15.536;2022-07-24T05:41:31;19.30;99.90
29687;DHT22;16599;47.078;15.536;2022-07-24T05:43:58;19.20;99.90
29687;DHT22;16599;47.078;15.536;2022-07-24T05:46:24;19.20;99.90
29687;DHT22;16599;47.078;15.536;2022-07-24T05:48:51;19.30;99.90
29687;DHT22;16599;47.078;15.536;2022-07-24T05:51:18;19.30;99.90
29687;DHT22;16599;47.078;15.536;2022-07-24T05:53:45;19.50;99.90
29687;DHT22;16599;47.078;15.536;2022-07-24T05:56:11;19.40;99.90
29687;DHT22;16599;47.078;15.536;2022-07-24T05:58:38;19.30;99.90
29687;DHT22;16599;47.078;15.536;2022-07-24T06:01:05;19.40;99.90
29687;DHT22;16599;47.078;15.536;2022-07-24T06:03:32;19.60;99.90
29687;DHT22;16599;47.078;15.536;2022-07-24T06:05:58;19.70;99.90
29687;DHT22;16599;47.078;15.536;2022-07-24T06:08:25;19.60;99.90
29687;DHT22;16599;47.078;15.536;2022-07-24T06:10:52;19.70;99.90
29687;DHT22;16599;47.078;15.536;2022-07-24T06:13:19;19.90;99.90
29687;DHT22;16599;47.078;15.536;2022-07-24T06:15:45;20.20;99.90
29687;DHT22;16599;47.078;15.536;2022-07-24T06:18:12;20.40;99.90
29687;DHT22;16599;47.078;15.536;2022-07-24T06:20:39;20.50;99.90
29687;DHT22;16599;47.078;15.536;2022-07-24T06:23:06;20.60;99.90
29687;DHT22;16599;47.078;15.536;2022-07-24T06:25:32;20.70;99.90
29687;DHT22;16599;47.078;15.536;2022-07-24T06:27:59;20.70;99.90
29687;DHT22;16599;47.078;15.536;2022-07-24T06:30:27;20.80;99.90
29687;DHT22;16599;47.078;15.536;2022-07-24T06:32:55;20.90;99.90
29687;DHT22;16599;47.078;15.536;2022-07-24T06:35:22;21.00;99.90
29687;DHT22;16599;47.078;15.536;2022-07-24T06:37:49;21.00;99.90
29687;DHT22;16599;47.078;15.536;2022-07-24T06:40:16;20.90;99.90
29687;DHT22;16599;47.078;15.536;2022-07-24T06:42:46;21.10;99.90
29687;DHT22;16599;47.078;15.536;2022-07-24T06:45:13;21.30;99.90
29687;DHT22;16599;47.078;15.536;2022-07-24T06:47:40;21.50;99.90
29687;DHT22;16599;47.078;15.536;2022-07-24T06:50:07;21.60;99.90
29687;DHT22;16599;47.078;15.536;2022-07-24T06:52:35;21.60;99.90
29687;DHT22;16599;47.078;15.536;2022-07-24T06:55:02;21.70;99.90
29687;DHT22;16599;47.078;15.536;2022-07-24T06:57:29;21.90;99.90
29687;DHT22;16599;47.078;15.536;2022-07-24T06:59:56;21.80;99.90
29687;DHT22;16599;47.078;15.536;2022-07-24T07:02:22;21.80;99.90
29687;DHT22;16599;47.078;15.536;2022-07-24T07:04:49;21.80;99.90
29687;DHT22;16599;47.078;15.536;2022-07-24T07:07:17;21.90;99.90
29687;DHT22;16599;47.078;15.536;2022-07-24T07:09:44;21.90;99.90
29687;DHT22;16599;47.078;15.536;2022-07-24T07:12:11;21.80;99.90
29687;DHT22;16599;47.078;15.536;2022-07-24T07:14:37;21.70;99.90
29687;DHT22;16599;47.078;15.536;2022-07-24T07:17:04;21.90;99.90
29687;DHT22;16599;47.078;15.536;2022-07-24T07:19:31;21.90;99.90
29687;DHT22;16599;47.078;15.536;2022-07-24T07:21:57;22.00;99.90
29687;DHT22;16599;47.078;15.536;2022-07-24T07:24:24;22.30;99.90
29687;DHT22;16599;47.078;15.536;2022-07-24T07:26:51;22.30;99.90
29687;DHT22;16599;47.078;15.536;2022-07-24T07:29:18;22.40;99.90
29687;DHT22;16599;47.078;15.536;2022-07-24T07:31:45;22.40;99.90
29687;DHT22;16599;47.078;15.536;2022-07-24T07:34:12;22.50;99.90
29687;DHT22;16599;47.078;15.536;2022-07-24T07:36:38;22.40;99.90
29687;DHT22;16599;47.078;15.536;2022-07-24T07:39:05;22.50;99.90
29687;DHT22;16599;47.078;15.536;2022-07-24T07:41:33;22.60;99.90
29687;DHT22;16599;47.078;15.536;2022-07-24T07:44:00;22.60;99.90
29687;DHT22;16599;47.078;15.536;2022-07-24T07:46:27;22.70;99.90
29687;DHT22;16599;47.078;15.536;2022-07-24T07:48:54;22.70;99.90
29687;DHT22;16599;47.078;15.536;2022-07-24T07:51:21;23.00;99.90
29687;DHT22;16599;47.078;15.536;2022-07-24T07:53:50;23.10;99.90
29687;DHT22;16599;47.078;15.536;2022-07-24T07:56:17;23.10;99.90
29687;DHT22;16599;47.078;15.536;2022-07-24T07:58:43;23.30;99.90
29687;DHT22;16599;47.078;15.536;2022-07-24T08:01:10;23.50;99.90
29687;DHT22;16599;47.078;15.536;2022-07-24T08:03:37;23.50;99.90
29687;DHT22;16599;47.078;15.536;2022-07-24T08:06:04;23.20;99.90
29687;DHT22;16599;47.078;15.536;2022-07-24T08:08:41;23.30;99.90
29687;DHT22;16599;47.078;15.536;2022-07-24T08:11:08;23.30;99.90
29687;DHT22;16599;47.078;15.536;2022-07-24T08:13:34;23.30;99.90
29687;DHT22;16599;47.078;15.536;2022-07-24T08:16:01;23.30;99.90
29687;DHT22;16599;47.078;15.536;2022-07-24T08:18:28;23.40;99.90
29687;DHT22;16599;47.078;15.536;2022-07-24T08:20:55;23.40;99.90
29687;DHT22;16599;47.078;15.536;2022-07-24T08:23:21;23.50;99.90
29687;DHT22;16599;47.078;15.536;2022-07-24T08:25:48;23.80;99.90
29687;DHT22;16599;47.078;15.536;2022-07-24T08:28:15;23.90;99.90
29687;DHT22;16599;47.078;15.536;2022-07-24T08:30:42;23.70;99.30
29687;DHT22;16599;47.078;15.536;2022-07-24T08:33:09;23.90;99.90
29687;DHT22;16599;47.078;15.536;2022-07-24T08:35:35;23.90;99.90
29687;DHT22;16599;47.078;15.536;2022-07-24T08:38:02;24.00;99.30
29687;DHT22;16599;47.078;15.536;2022-07-24T08:40:32;23.90;98.70
29687;DHT22;16599;47.078;15.536;2022-07-24T08:42:59;24.00;99.70
29687;DHT22;16599;47.078;15.536;2022-07-24T08:45:27;24.20;98.20
29687;DHT22;16599;47.078;15.536;2022-07-24T08:47:54;24.40;98.60
29687;DHT22;16599;47.078;15.536;2022-07-24T08:50:21;24.40;98.90
29687;DHT22;16599;47.078;15.536;2022-07-24T08:52:48;24.50;95.20
29687;DHT22;16599;47.078;15.536;2022-07-24T08:55:15;24.70;98.00
29687;DHT22;16599;47.078;15.536;2022-07-24T08:57:41;24.70;97.80
29687;DHT22;16599;47.078;15.536;2022-07-24T09:00:08;24.80;98.80
29687;DHT22;16599;47.078;15.536;2022-07-24T09:02:38;24.80;98.40
29687;DHT22;16599;47.078;15.536;2022-07-24T09:05:05;24.90;98.60
29687;DHT22;16599;47.078;15.536;2022-07-24T09:07:32;24.90;95.10
29687;DHT22;16599;47.078;15.536;2022-07-24T09:10:10;24.80;97.70
29687;DHT22;16599;47.078;15.536;2022-07-24T09:12:40;25.10;98.90
29687;DHT22;16599;47.078;15.536;2022-07-24T09:15:14;25.30;97.80
29687;DHT22;16599;47.078;15.536;2022-07-24T09:17:48;25.30;97.80
29687;DHT22;16599;47.078;15.536;2022-07-24T09:20:16;25.40;96.00
29687;DHT22;16599;47.078;15.536;2022-07-24T09:22:43;25.50;97.60
29687;DHT22;16599;47.078;15.536;2022-07-24T09:25:14;25.50;96.70
29687;DHT22;16599;47.078;15.536;2022-07-24T09:32:55;25.70;94.60
29687;DHT22;16599;47.078;15.536;2022-07-24T09:35:44;25.80;92.10
29687;DHT22;16599;47.078;15.536;2022-07-24T09:38:09;25.90;90.40
29687;DHT22;16599;47.078;15.536;2022-07-24T09:40:37;26.10;90.30
29687;DHT22;16599;47.078;15.536;2022-07-24T09:43:11;25.90;90.60
29687;DHT22;16599;47.078;15.536;2022-07-24T09:46:01;26.20;92.00
29687;DHT22;16599;47.078;15.536;2022-07-24T09:48:33;26.20;91.10
29687;DHT22;16599;47.078;15.536;2022-07-24T09:51:04;26.10;90.70
29687;DHT22;16599;47.078;15.536;2022-07-24T09:53:36;26.10;90.40
29687;DHT22;16599;47.078;15.536;2022-07-24T09:56:08;26.30;91.50
29687;DHT22;16599;47.078;15.536;2022-07-24T09:58:36;26.50;90.80
29687;DHT22;16599;47.078;15.536;2022-07-24T10:01:05;26.60;90.70
29687;DHT22;16599;47.078;15.536;2022-07-24T10:03:33;26.60;88.10
29687;DHT22;16599;47.078;15.536;2022-07-24T10:06:02;26.10;85.40
29687;DHT22;16599;47.078;15.536;2022-07-24T10:08:34;26.10;88.80
29687;DHT22;16599;47.078;15.536;2022-07-24T10:11:01;26.00;87.50
29687;DHT22;16599;47.078;15.536;2022-07-24T10:13:28;26.30;87.20
29687;DHT22;16599;47.078;15.536;2022-07-24T10:21:07;27.00;86.40
29687;DHT22;16599;47.078;15.536;2022-07-24T10:23:50;27.10;85.00
29687;DHT22;16599;47.078;15.536;2022-07-24T10:26:31;26.80;83.90
29687;DHT22;16599;47.078;15.536;2022-07-24T10:29:05;27.10;85.70
29687;DHT22;16599;47.078;15.536;2022-07-24T10:31:34;27.20;80.70
29687;DHT22;16599;47.078;15.536;2022-07-24T10:34:01;27.30;81.60
29687;DHT22;16599;47.078;15.536;2022-07-24T10:36:30;27.40;80.90
29687;DHT22;16599;47.078;15.536;2022-07-24T10:39:10;27.30;79.50
29687;DHT22;16599;47.078;15.536;2022-07-24T10:41:38;27.00;79.30
29687;DHT22;16599;47.078;15.536;2022-07-24T10:44:12;26.80;83.00
29687;DHT22;16599;47.078;15.536;2022-07-24T10:49:40;27.40;80.40
29687;DHT22;16599;47.078;15.536;2022-07-24T10:52:09;27.20;76.50
29687;DHT22;16599;47.078;15.536;2022-07-24T10:54:36;27.00;77.40
29687;DHT22;16599;47.078;15.536;2022-07-24T10:57:03;27.20;78.70
29687;DHT22;16599;47.078;15.536;2022-07-24T10:59:37;27.50;76.80
29687;DHT22;16599;47.078;15.536;2022-07-24T11:04:53;27.70;76.70
29687;DHT22;16599;47.078;15.536;2022-07-24T11:07:36;28.10;78.40
29687;DHT22;16599;47.078;15.536;2022-07-24T11:10:03;28.00;73.30
29687;DHT22;16599;47.078;15.536;2022-07-24T11:12:40;27.60;76.60
29687;DHT22;16599;47.078;15.536;2022-07-24T11:15:12;27.60;77.80
29687;DHT22;16599;47.078;15.536;2022-07-24T11:18:12;27.80;75.70
29687;DHT22;16599;47.078;15.536;2022-07-24T11:20:38;27.30;71.40
29687;DHT22;16599;47.078;15.536;2022-07-24T11:23:18;27.40;76.80
29687;DHT22;16599;47.078;15.536;2022-07-24T11:25:49;27.60;73.60
29687;DHT22;16599;47.078;15.536;2022-07-24T11:28:15;27.90;74.80
29687;DHT22;16599;47.078;15.536;2022-07-24T11:30:43;27.90;72.70
29687;DHT22;16599;47.078;15.536;2022-07-24T11:33:11;27.90;75.00
29687;DHT22;16599;47.078;15.536;2022-07-24T11:35:38;27.80;72.40
29687;DHT22;16599;47.078;15.536;2022-07-24T11:38:06;27.90;76.90
29687;DHT22;16599;47.078;15.536;2022-07-24T11:40:33;28.30;77.20
29687;DHT22;16599;47.078;15.536;2022-07-24T11:43:02;28.60;74.60
29687;DHT22;16599;47.078;15.536;2022-07-24T11:45:36;28.40;72.40
29687;DHT22;16599;47.078;15.536;2022-07-24T11:48:03;28.60;72.10
29687;DHT22;16599;47.078;15.536;2022-07-24T11:50:30;28.70;68.00
29687;DHT22;16599;47.078;15.536;2022-07-24T11:52:59;28.60;72.00
29687;DHT22;16599;47.078;15.536;2022-07-24T11:55:26;29.00;68.00
29687;DHT22;16599;47.078;15.536;2022-07-24T11:57:53;29.10;69.50
29687;DHT22;16599;47.078;15.536;2022-07-24T12:00:40;28.90;66.80
29687;DHT22;16599;47.078;15.536;2022-07-24T12:03:08;28.60;66.10
29687;DHT22;16599;47.078;15.536;2022-07-24T12:05:36;28.10;67.90
29687;DHT22;16599;47.078;15.536;2022-07-24T12:08:15;27.90;69.90
29687;DHT22;16599;47.078;15.536;2022-07-24T12:10:42;28.40;67.20
29687;DHT22;16599;47.078;15.536;2022-07-24T12:13:09;29.00;71.60
29687;DHT22;16599;47.078;15.536;2022-07-24T12:15:38;29.30;66.20
29687;DHT22;16599;47.078;15.536;2022-07-24T12:18:06;29.60;68.00
29687;DHT22;16599;47.078;15.536;2022-07-24T12:20:43;29.50;67.40
29687;DHT22;16599;47.078;15.536;2022-07-24T12:23:11;29.30;66.70
29687;DHT22;16599;47.078;15.536;2022-07-24T12:25:39;29.00;67.60
29687;DHT22;16599;47.078;15.536;2022-07-24T12:28:06;28.90;68.80
29687;DHT22;16599;47.078;15.536;2022-07-24T12:30:38;28.60;69.30
29687;DHT22;16599;47.078;15.536;2022-07-24T12:38:27;28.70;67.80
29687;DHT22;16599;47.078;15.536;2022-07-24T12:43:49;29.30;66.70
29687;DHT22;16599;47.078;15.536;2022-07-24T12:46:17;29.30;63.40
29687;DHT22;16599;47.078;15.536;2022-07-24T12:54:35;29.00;68.20
29687;DHT22;16599;47.078;15.536;2022-07-24T12:57:12;29.50;68.20
29687;DHT22;16599;47.078;15.536;2022-07-24T12:59:46;29.60;67.10
29687;DHT22;16599;47.078;15.536;2022-07-24T13:02:17;29.20;62.00
29687;DHT22;16599;47.078;15.536;2022-07-24T13:04:45;28.30;64.80
29687;DHT22;16599;47.078;15.536;2022-07-24T13:07:13;28.70;67.50
29687;DHT22;16599;47.078;15.536;2022-07-24T13:09:40;29.20;67.40
29687;DHT22;16599;47.078;15.536;2022-07-24T13:12:08;29.70;64.80
29687;DHT22;16599;47.078;15.536;2022-07-24T13:14:35;29.80;66.80
29687;DHT22;16599;47.078;15.536;2022-07-24T13:17:07;30.00;64.00
29687;DHT22;16599;47.078;15.536;2022-07-24T13:19:37;30.10;61.20
29687;DHT22;16599;47.078;15.536;2022-07-24T13:22:04;30.10;59.50
29687;DHT22;16599;47.078;15.536;2022-07-24T13:24:31;30.20;59.60
29687;DHT22;16599;47.078;15.536;2022-07-24T13:26:59;30.20;61.40
29687;DHT22;16599;47.078;15.536;2022-07-24T13:29:27;30.70;61.90
29687;DHT22;16599;47.078;15.536;2022-07-24T13:31:53;30.30;61.50
29687;DHT22;16599;47.078;15.536;2022-07-24T13:34:21;29.70;59.20
29687;DHT22;16599;47.078;15.536;2022-07-24T13:36:48;29.00;61.50
29687;DHT22;16599;47.078;15.536;2022-07-24T13:39:15;29.30;64.40
29687;DHT22;16599;47.078;15.536;2022-07-24T13:41:42;29.80;62.50
29687;DHT22;16599;47.078;15.536;2022-07-24T13:44:09;30.50;64.60
29687;DHT22;16599;47.078;15.536;2022-07-24T13:46:36;30.30;58.10
29687;DHT22;16599;47.078;15.536;2022-07-24T13:49:03;29.10;60.30
29687;DHT22;16599;47.078;15.536;2022-07-24T13:51:30;29.30;63.20
29687;DHT22;16599;47.078;15.536;2022-07-24T13:53:57;29.80;61.50
29687;DHT22;16599;47.078;15.536;2022-07-24T13:56:26;30.50;63.90
29687;DHT22;16599;47.078;15.536;2022-07-24T13:58:53;30.50;58.50
29687;DHT22;16599;47.078;15.536;2022-07-24T14:01:20;30.60;61.10
29687;DHT22;16599;47.078;15.536;2022-07-24T14:04:00;30.70;60.90
29687;DHT22;16599;47.078;15.536;2022-07-24T14:06:47;30.50;57.80
29687;DHT22;16599;47.078;15.536;2022-07-24T14:09:13;30.70;61.80
29687;DHT22;16599;47.078;15.536;2022-07-24T14:11:40;30.70;59.50
29687;DHT22;16599;47.078;15.536;2022-07-24T14:14:07;30.40;61.70
29687;DHT22;16599;47.078;15.536;2022-07-24T14:16:35;30.00;62.90
29687;DHT22;16599;47.078;15.536;2022-07-24T14:19:04;29.10;68.20
29687;DHT22;16599;47.078;15.536;2022-07-24T14:21:30;28.70;69.80
29687;DHT22;16599;47.078;15.536;2022-07-24T14:24:00;28.30;69.80
29687;DHT22;16599;47.078;15.536;2022-07-24T14:26:28;27.80;71.20
29687;DHT22;16599;47.078;15.536;2022-07-24T14:28:55;27.50;72.40
29687;DHT22;16599;47.078;15.536;2022-07-24T14:31:22;27.20;72.80
29687;DHT22;16599;47.078;15.536;2022-07-24T14:33:48;27.00;73.90
29687;DHT22;16599;47.078;15.536;2022-07-24T14:36:15;26.90;75.10
29687;DHT22;16599;47.078;15.536;2022-07-24T14:38:42;26.90;74.90
29687;DHT22;16599;47.078;15.536;2022-07-24T14:41:09;26.80;74.40
29687;DHT22;16599;47.078;15.536;2022-07-24T14:43:35;26.70;73.70
29687;DHT22;16599;47.078;15.536;2022-07-24T14:46:02;26.70;74.60
29687;DHT22;16599;47.078;15.536;2022-07-24T14:48:29;26.90;75.30
29687;DHT22;16599;47.078;15.536;2022-07-24T14:50:56;27.30;75.00
29687;DHT22;16599;47.078;15.536;2022-07-24T14:53:23;27.60;73.00
29687;DHT22;16599;47.078;15.536;2022-07-24T14:55:50;27.10;74.60
29687;DHT22;16599;47.078;15.536;2022-07-24T14:58:16;27.40;73.80
29687;DHT22;16599;47.078;15.536;2022-07-24T15:00:43;27.70;74.60
29687;DHT22;16599;47.078;15.536;2022-07-24T15:03:10;28.00;72.20
29687;DHT22;16599;47.078;15.536;2022-07-24T15:05:37;28.00;72.40
29687;DHT22;16599;47.078;15.536;2022-07-24T15:08:04;28.30;72.30
29687;DHT22;16599;47.078;15.536;2022-07-24T15:10:31;28.50;69.00
29687;DHT22;16599;47.078;15.536;2022-07-24T15:12:57;28.30;70.10
29687;DHT22;16599;47.078;15.536;2022-07-24T15:15:24;28.40;71.50
29687;DHT22;16599;47.078;15.536;2022-07-24T15:17:56;28.70;69.50
29687;DHT22;16599;47.078;15.536;2022-07-24T15:20:23;28.80;66.90
29687;DHT22;16599;47.078;15.536;2022-07-24T15:22:50;28.60;68.10
29687;DHT22;16599;47.078;15.536;2022-07-24T15:25:17;28.80;68.30
29687;DHT22;16599;47.078;15.536;2022-07-24T15:27:44;28.50;68.10
29687;DHT22;16599;47.078;15.536;2022-07-24T15:30:15;28.20;69.90
29687;DHT22;16599;47.078;15.536;2022-07-24T15:32:42;28.20;70.90
29687;DHT22;16599;47.078;15.536;2022-07-24T15:35:09;27.90;71.30
29687;DHT22;16599;47.078;15.536;2022-07-24T15:37:36;27.90;69.70
29687;DHT22;16599;47.078;15.536;2022-07-24T15:40:02;28.10;70.60
29687;DHT22;16599;47.078;15.536;2022-07-24T15:42:29;28.20;70.20
29687;DHT22;16599;47.078;15.536;2022-07-24T15:44:56;28.10;71.70
29687;DHT22;16599;47.078;15.536;2022-07-24T15:47:23;28.30;69.40
29687;DHT22;16599;47.078;15.536;2022-07-24T15:49:49;28.30;69.70
29687;DHT22;16599;47.078;15.536;2022-07-24T15:52:16;28.30;69.90